Time;durP1;ratioP1;P1;durP2;ratioP2;P2;SDS_P1;SDS_P2;PMS_P1;PMS_P2;Temp;Humidity;BMP_temperature;BMP_pressure;BME280_temperature;BME280_humidity;BME280_pressure;Samples;Min_cycle;Max_cycle;Signal;HPM_P1;HPM_P2
2022/06/16 00:01:01;;;;;;;67.75;51.78;;;24.70;53.30;;;;;;4950139;28;90140;-72
2022/06/16 00:03:27;;;;;;;67.45;51.90;;;24.60;53.10;;;;;;4951188;28;90372;-72
2022/06/16 00:05:53;;;;;;;66.53;51.95;;;24.60;53.30;;;;;;4948724;28;89798;-72
2022/06/16 00:08:19;;;;;;;66.45;51.75;;;24.60;53.30;;;;;;4950492;28;90141;-72
2022/06/16 00:13:39;;;;;;;66.72;52.10;;;24.50;53.40;;;;;;4944497;28;90671;-72
2022/06/16 00:16:06;;;;;;;68.03;51.83;;;24.50;53.50;;;;;;4949093;28;89996;-72
2022/06/16 00:18:32;;;;;;;67.63;52.30;;;24.50;53.30;;;;;;4947927;28;90884;-73
2022/06/16 00:20:58;;;;;;;67.35;52.03;;;24.50;53.50;;;;;;4943822;28;91411;-72
2022/06/16 00:23:24;;;;;;;66.35;51.97;;;24.50;53.40;;;;;;4947858;28;95977;-72
2022/06/16 00:25:49;;;;;;;66.40;52.08;;;24.50;53.40;;;;;;4944363;28;93060;-72
2022/06/16 00:28:15;;;;;;;66.45;51.92;;;24.60;53.20;;;;;;4948408;28;90956;-72
2022/06/16 00:30:41;;;;;;;65.60;51.53;;;24.50;53.50;;;;;;4927893;28;91051;-72
2022/06/16 00:33:07;;;;;;;66.95;51.97;;;24.50;53.40;;;;;;4945517;28;91253;-72
2022/06/16 00:35:33;;;;;;;66.13;51.85;;;24.50;53.50;;;;;;4951765;28;90834;-72
2022/06/16 00:37:58;;;;;;;66.30;52.05;;;24.50;53.50;;;;;;4947253;28;89974;-72
2022/06/16 00:40:24;;;;;;;66.70;52.13;;;24.50;53.30;;;;;;4949601;28;90094;-72
2022/06/16 00:42:50;;;;;;;66.25;52.22;;;24.40;53.30;;;;;;4936676;28;91016;-72
2022/06/16 00:45:51;;;;;;;66.55;51.85;;;24.50;53.40;;;;;;4951114;28;90785;-73
2022/06/16 00:48:32;;;;;;;66.20;51.57;;;24.40;53.30;;;;;;4893147;28;90149;-72
2022/06/16 00:51:08;;;;;;;67.20;52.22;;;24.40;53.40;;;;;;4937093;28;90055;-72
2022/06/16 00:53:36;;;;;;;65.88;51.85;;;24.50;53.60;;;;;;4946824;28;91593;-72
2022/06/16 00:56:03;;;;;;;66.05;51.85;;;24.50;53.30;;;;;;4947954;28;92308;-72
2022/06/16 00:58:32;;;;;;;66.38;51.95;;;24.40;53.40;;;;;;4955874;28;89894;-72
2022/06/16 01:00:58;;;;;;;66.78;51.90;;;24.40;53.30;;;;;;4947680;28;89627;-72
2022/06/16 01:06:21;;;;;;;66.80;52.05;;;24.30;53.60;;;;;;4957045;28;89780;-72
2022/06/16 01:08:51;;;;;;;66.60;52.05;;;24.30;53.70;;;;;;4954153;28;94284;-72
2022/06/16 01:14:40;;;;;;;66.60;52.10;;;24.30;53.70;;;;;;4943075;28;90913;-72
2022/06/16 01:17:21;;;;;;;65.87;51.63;;;24.40;53.70;;;;;;4947415;28;89351;-72
2022/06/16 01:20:04;;;;;;;66.03;51.95;;;24.30;53.50;;;;;;4945272;28;95265;-72
2022/06/16 01:22:48;;;;;;;65.53;51.47;;;24.30;53.60;;;;;;4953611;28;90131;-72
2022/06/16 01:25:38;;;;;;;65.93;51.88;;;24.30;53.50;;;;;;4950075;28;90893;-72
2022/06/16 01:28:23;;;;;;;66.05;51.95;;;24.40;53.50;;;;;;4946693;28;90476;-72
2022/06/16 01:30:57;;;;;;;66.97;51.72;;;24.30;53.90;;;;;;4952006;28;89773;-74
2022/06/16 01:33:26;;;;;;;65.55;51.80;;;24.30;53.60;;;;;;4955174;28;89961;-72
2022/06/16 01:36:36;;;;;;;65.47;51.75;;;24.20;53.70;;;;;;4958439;28;92546;-72
2022/06/16 01:39:12;;;;;;;66.47;51.75;;;24.20;53.60;;;;;;4921536;28;90965;-72
2022/06/16 01:41:54;;;;;;;66.20;51.63;;;24.10;53.70;;;;;;4924963;28;90045;-72
2022/06/16 01:44:19;;;;;;;66.30;52.17;;;24.10;53.90;;;;;;4931730;28;90075;-72
2022/06/16 01:46:51;;;;;;;67.10;52.15;;;24.10;53.90;;;;;;4940111;28;90326;-72
2022/06/16 01:49:21;;;;;;;;;;;24.10;54.20;;;;;;4949669;28;90876;-72
2022/06/16 01:52:01;;;;;;;66.15;51.55;;;24.10;54.00;;;;;;4957886;28;90210;-72
2022/06/16 01:54:36;;;;;;;66.13;51.83;;;24.20;53.80;;;;;;4938032;28;89206;-72
2022/06/16 01:57:08;;;;;;;68.68;51.97;;;24.10;53.70;;;;;;4941530;28;91235;-72
2022/06/16 01:59:42;;;;;;;65.88;51.45;;;24.20;53.70;;;;;;4934815;28;92308;-72
2022/06/16 02:02:12;;;;;;;66.20;51.72;;;24.20;53.70;;;;;;4954470;28;90886;-72
2022/06/16 02:04:45;;;;;;;66.73;52.00;;;24.10;53.90;;;;;;4955367;28;89427;-72
2022/06/16 02:07:20;;;;;;;66.60;51.95;;;24.10;53.90;;;;;;4937718;28;89882;-72
2022/06/16 02:09:49;;;;;;;67.55;52.05;;;24.10;53.90;;;;;;4948942;28;91355;-72
2022/06/16 02:15:25;;;;;;;68.82;52.05;;;24.00;54.10;;;;;;4947043;28;90895;-72
2022/06/16 02:17:55;;;;;;;65.72;52.05;;;24.00;53.90;;;;;;4955894;28;90039;-71
2022/06/16 02:20:20;;;;;;;65.47;51.65;;;24.00;54.10;;;;;;4950525;28;89625;-72
2022/06/16 02:22:46;;;;;;;66.25;51.63;;;24.00;54.10;;;;;;4947409;28;90643;-72
2022/06/16 02:25:12;;;;;;;66.10;52.05;;;24.00;54.20;;;;;;4945600;28;89774;-72
2022/06/16 02:27:37;;;;;;;67.13;51.83;;;24.00;54.10;;;;;;4948829;28;92455;-72
2022/06/16 02:30:03;;;;;;;66.53;52.28;;;23.90;54.20;;;;;;4950865;28;92486;-72
2022/06/16 02:32:51;;;;;;;66.03;51.78;;;23.80;54.10;;;;;;4951976;28;90012;-72
2022/06/16 02:35:54;;;;;;;66.15;52.15;;;23.80;54.40;;;;;;4952394;28;90079;-72
2022/06/16 02:38:22;;;;;;;65.43;51.67;;;23.80;54.40;;;;;;4945873;28;96013;-72
2022/06/16 02:41:20;;;;;;;66.13;52.22;;;23.80;54.40;;;;;;4945551;28;91735;-72
2022/06/16 02:44:05;;;;;;;65.53;51.63;;;23.70;54.60;;;;;;4874449;28;89718;-72
2022/06/16 02:46:56;;;;;;;65.40;51.72;;;23.80;54.50;;;;;;4952438;28;89184;-72
2022/06/16 02:49:29;;;;;;;;;;;23.80;54.30;;;;;;4947639;28;90539;-72
2022/06/16 02:51:58;;;;;;;64.72;51.45;;;23.80;54.60;;;;;;4944583;28;89613;-72
2022/06/16 02:54:42;;;;;;;65.55;51.72;;;23.80;54.40;;;;;;4935721;28;90639;-72
2022/06/16 02:57:32;;;;;;;65.70;51.90;;;23.70;54.50;;;;;;4949236;28;90045;-72
2022/06/16 03:00:07;;;;;;;67.47;52.03;;;23.70;54.40;;;;;;4947707;28;90895;-72
2022/06/16 03:02:36;;;;;;;66.70;51.97;;;23.80;54.50;;;;;;4951877;28;89644;-71
2022/06/16 03:05:05;;;;;;;67.30;51.70;;;23.70;54.40;;;;;;4952003;28;90998;-71
2022/06/16 03:07:33;;;;;;;66.28;51.75;;;23.70;54.40;;;;;;4947851;28;90340;-71
2022/06/16 03:10:00;;;;;;;66.03;51.80;;;23.70;54.50;;;;;;4948154;28;90073;-71
2022/06/16 03:12:26;;;;;;;65.57;51.85;;;23.60;54.50;;;;;;4937416;28;90419;-71
2022/06/16 03:14:52;;;;;;;66.03;51.88;;;23.70;54.60;;;;;;4930699;28;91390;-71
2022/06/16 03:17:18;;;;;;;65.57;52.15;;;23.70;54.50;;;;;;4939496;28;91202;-71
2022/06/16 03:19:44;;;;;;;65.78;52.03;;;23.70;54.50;;;;;;4949441;28;92433;-71
2022/06/16 03:22:10;;;;;;;65.32;51.63;;;23.60;54.80;;;;;;4933446;28;91645;-72
2022/06/16 03:24:36;;;;;;;65.13;51.72;;;23.60;54.60;;;;;;4944865;28;89769;-71
2022/06/16 03:27:02;;;;;;;67.05;52.08;;;23.60;54.60;;;;;;4948120;28;89916;-71
2022/06/16 03:29:28;;;;;;;65.50;51.92;;;23.60;54.60;;;;;;4949674;28;91884;-72
2022/06/16 03:31:55;;;;;;;66.65;52.60;;;23.60;54.70;;;;;;4932168;28;91605;-71
2022/06/16 03:34:21;;;;;;;65.50;52.05;;;23.60;54.70;;;;;;4952263;28;91427;-71
2022/06/16 03:36:47;;;;;;;66.45;52.22;;;23.60;54.70;;;;;;4953731;28;89004;-71
2022/06/16 03:39:13;;;;;;;65.75;52.05;;;23.60;54.80;;;;;;4950265;28;90297;-71
2022/06/16 03:41:39;;;;;;;66.15;52.08;;;23.60;54.70;;;;;;4937108;28;90844;-71
2022/06/16 03:44:05;;;;;;;65.78;51.83;;;23.60;54.70;;;;;;4938889;28;90922;-71
2022/06/16 03:46:30;;;;;;;65.53;52.10;;;23.50;54.60;;;;;;4947199;28;90411;-71
2022/06/16 03:48:56;;;;;;;65.30;51.78;;;23.60;54.70;;;;;;4951170;28;90139;-71
2022/06/16 03:51:22;;;;;;;66.38;51.70;;;23.50;54.70;;;;;;4934898;28;90285;-71
2022/06/16 03:53:47;;;;;;;65.38;52.00;;;23.60;54.80;;;;;;4922584;28;91472;-73
2022/06/16 03:56:13;;;;;;;64.93;51.65;;;23.50;54.70;;;;;;4936752;28;90434;-73
2022/06/16 03:58:40;;;;;;;65.43;51.67;;;23.40;55.50;;;;;;4942553;28;91350;-73
2022/06/16 04:01:05;;;;;;;66.70;52.08;;;23.50;54.90;;;;;;4927772;28;93036;-73
2022/06/16 04:06:16;;;;;;;66.32;51.95;;;23.50;54.70;;;;;;4940784;28;90242;-73
2022/06/16 04:08:42;;;;;;;67.22;51.88;;;23.50;54.60;;;;;;4938613;28;92116;-73
2022/06/16 04:13:54;;;;;;;65.35;51.55;;;23.40;55.10;;;;;;4939682;28;90886;-73
2022/06/16 04:16:20;;;;;;;66.25;52.15;;;23.40;55.00;;;;;;4937406;28;90505;-73
2022/06/16 04:18:46;;;;;;;65.22;51.90;;;23.20;55.20;;;;;;4940135;28;91221;-73
2022/06/16 04:21:12;;;;;;;65.13;51.88;;;23.20;55.50;;;;;;4924436;28;91321;-73
2022/06/16 04:23:38;;;;;;;66.13;51.80;;;23.10;55.40;;;;;;4935356;28;95623;-73
2022/06/16 04:26:04;;;;;;;66.35;52.03;;;23.10;55.30;;;;;;4939856;28;91413;-73
2022/06/16 04:28:30;;;;;;;66.35;52.22;;;23.10;55.40;;;;;;4940733;28;90344;-73
2022/06/16 04:30:56;;;;;;;65.82;52.28;;;23.00;55.80;;;;;;4942794;28;91530;-73
2022/06/16 04:33:22;;;;;;;65.75;52.25;;;22.90;55.90;;;;;;4937248;28;92048;-73
2022/06/16 04:35:48;;;;;;;66.68;51.97;;;22.90;55.90;;;;;;4927557;28;91181;-73
2022/06/16 04:38:14;;;;;;;65.07;51.78;;;22.80;56.20;;;;;;4942029;28;91180;-73
2022/06/16 04:40:40;;;;;;;65.38;51.85;;;22.80;56.40;;;;;;4926001;28;93138;-74
2022/06/16 04:43:05;;;;;;;65.95;52.13;;;22.80;56.70;;;;;;4937559;28;89925;-73
2022/06/16 04:45:31;;;;;;;64.90;51.63;;;22.70;56.70;;;;;;4946575;28;89593;-73
2022/06/16 04:47:57;;;;;;;65.30;51.78;;;22.70;56.90;;;;;;4931955;28;90286;-72
2022/06/16 04:50:22;;;;;;;65.90;52.20;;;22.60;56.90;;;;;;4936518;28;94172;-73
2022/06/16 04:52:48;;;;;;;66.20;51.75;;;22.60;57.10;;;;;;4924071;28;89983;-72
2022/06/16 04:55:15;;;;;;;65.35;51.58;;;22.60;57.20;;;;;;4927684;28;89765;-72
2022/06/16 04:57:42;;;;;;;67.18;51.90;;;22.50;57.40;;;;;;4932492;28;93045;-72
2022/06/16 05:00:13;;;;;;;65.25;51.97;;;22.50;57.60;;;;;;4935466;28;91078;-71
2022/06/16 05:02:39;;;;;;;65.88;52.33;;;22.50;57.50;;;;;;4943698;28;89861;-72
2022/06/16 05:05:05;;;;;;;64.15;51.38;;;22.50;57.60;;;;;;4932716;28;90285;-72
2022/06/16 05:07:31;;;;;;;66.00;51.60;;;22.50;57.80;;;;;;4942714;28;90772;-71
2022/06/16 05:09:59;;;;;;;64.70;51.25;;;22.50;57.80;;;;;;4919169;28;92721;-70
2022/06/16 05:12:25;;;;;;;65.40;51.72;;;22.60;57.70;;;;;;4919597;28;93577;-68
2022/06/16 05:14:51;;;;;;;64.20;51.45;;;22.70;57.50;;;;;;4944935;28;89223;-71
2022/06/16 05:17:17;;;;;;;64.85;51.40;;;22.70;57.60;;;;;;4940355;28;90338;-72
2022/06/16 05:19:42;;;;;;;65.25;51.80;;;22.70;57.50;;;;;;4940925;28;90433;-73
2022/06/16 05:22:08;;;;;;;64.90;51.35;;;22.70;57.40;;;;;;4939055;28;97727;-72
2022/06/16 05:24:34;;;;;;;65.47;51.92;;;22.70;57.40;;;;;;4929170;28;90475;-71
2022/06/16 05:27:05;;;;;;;65.13;52.00;;;22.70;57.40;;;;;;4936248;28;92342;-71
2022/06/16 05:29:31;;;;;;;65.88;51.25;;;22.70;57.30;;;;;;4934963;28;90196;-73
2022/06/16 05:31:57;;;;;;;64.53;51.13;;;22.60;57.50;;;;;;4941584;28;93002;-72
2022/06/16 05:34:23;;;;;;;64.85;51.75;;;22.60;57.20;;;;;;4953401;28;89572;-72
2022/06/16 05:36:49;;;;;;;64.15;51.13;;;22.50;57.20;;;;;;4955560;28;90169;-72
2022/06/16 05:39:15;;;;;;;64.45;51.47;;;22.60;57.30;;;;;;4953131;28;90503;-72
2022/06/16 05:41:41;;;;;;;65.40;51.65;;;22.60;57.30;;;;;;4941372;28;90040;-72
2022/06/16 05:44:08;;;;;;;65.03;51.38;;;22.60;57.30;;;;;;4949105;28;96266;-72
2022/06/16 05:46:35;;;;;;;65.00;51.33;;;22.70;57.20;;;;;;4927658;28;93970;-72
2022/06/16 05:49:00;;;;;;;66.07;51.42;;;22.70;57.10;;;;;;4956071;28;91736;-73
2022/06/16 05:51:26;;;;;;;65.13;51.45;;;22.70;57.10;;;;;;4954030;28;90319;-72
2022/06/16 05:53:52;;;;;;;64.43;51.05;;;22.80;56.80;;;;;;4951551;28;94023;-73
2022/06/16 05:56:18;;;;;;;64.95;51.50;;;22.80;57.00;;;;;;4952371;28;90434;-72
2022/06/16 05:58:44;;;;;;;64.80;51.33;;;22.80;56.90;;;;;;4955304;28;91510;-72
2022/06/16 06:01:11;;;;;;;64.07;51.28;;;22.90;56.90;;;;;;4938103;28;91014;-72
2022/06/16 06:03:41;;;;;;;64.38;51.08;;;22.80;56.60;;;;;;4943062;28;92438;-72
2022/06/16 06:06:08;;;;;;;63.92;51.03;;;22.80;56.70;;;;;;4955043;28;90849;-73
2022/06/16 06:17:15;;;;;;;64.32;51.25;;;23.00;56.70;;;;;;4941847;28;91413;-72
2022/06/16 06:19:41;;;;;;;65.65;51.22;;;23.00;56.30;;;;;;4948226;28;90601;-72
2022/06/16 06:22:11;;;;;;;64.25;51.35;;;23.00;56.30;;;;;;4928587;28;89874;-73
2022/06/16 06:25:03;;;;;;;73.68;58.88;;;23.00;56.60;;;;;;4941365;28;90171;-71
2022/06/16 06:27:41;;;;;;;73.97;58.85;;;22.00;57.90;;;;;;4947037;28;93345;-72
2022/06/16 06:30:13;;;;;;;73.97;58.90;;;21.10;60.50;;;;;;4946545;28;89836;-73
2022/06/16 06:32:39;;;;;;;72.78;57.83;;;21.10;61.40;;;;;;4946705;28;94846;-69
2022/06/16 06:35:06;;;;;;;77.75;59.60;;;21.00;62.80;;;;;;4936241;28;95978;-70
2022/06/16 06:37:31;;;;;;;75.43;58.45;;;20.90;63.10;;;;;;4951866;28;98599;-72
2022/06/16 06:39:57;;;;;;;73.55;59.45;;;20.70;63.40;;;;;;4934899;28;90264;-72
2022/06/16 06:42:23;;;;;;;73.07;58.20;;;20.70;63.70;;;;;;4947977;28;89771;-71
2022/06/16 06:44:50;;;;;;;75.28;58.22;;;20.70;64.10;;;;;;4949296;28;91660;-70
2022/06/16 06:47:20;;;;;;;76.00;58.40;;;20.70;63.90;;;;;;4956317;28;89661;-70
2022/06/16 06:49:46;;;;;;;77.70;58.70;;;20.80;64.60;;;;;;4955565;28;90188;-72
2022/06/16 06:52:13;;;;;;;76.60;58.63;;;20.60;64.00;;;;;;4936118;28;91810;-71
2022/06/16 06:54:39;;;;;;;74.78;58.88;;;20.90;63.10;;;;;;4940331;28;89268;-71
2022/06/16 06:57:05;;;;;;;75.85;58.22;;;20.80;63.60;;;;;;4932182;28;92948;-70
2022/06/16 06:59:34;;;;;;;78.20;59.35;;;21.20;62.40;;;;;;4939670;28;91679;-70
2022/06/16 07:01:59;;;;;;;77.88;58.42;;;21.00;62.40;;;;;;4931416;28;94739;-71
2022/06/16 07:04:25;;;;;;;75.55;58.63;;;21.00;62.90;;;;;;4935228;28;94559;-72
2022/06/16 07:06:51;;;;;;;76.05;58.72;;;21.00;63.20;;;;;;4944002;28;90146;-72
2022/06/16 07:09:19;;;;;;;74.38;58.35;;;20.90;63.30;;;;;;4942833;28;90058;-71
2022/06/16 07:11:45;;;;;;;74.30;58.10;;;21.10;62.80;;;;;;4939172;28;89974;-71
2022/06/16 07:14:12;;;;;;;71.15;57.65;;;21.00;63.20;;;;;;4946860;28;90170;-72
2022/06/16 07:16:37;;;;;;;78.43;57.85;;;21.10;62.40;;;;;;4942788;28;90087;-71
2022/06/16 07:19:04;;;;;;;74.55;58.72;;;21.40;62.50;;;;;;4951228;28;88649;-72
2022/06/16 07:21:29;;;;;;;77.32;58.25;;;21.50;61.80;;;;;;4942366;28;90132;-71
2022/06/16 07:23:56;;;;;;;75.55;57.15;;;21.60;61.50;;;;;;4943317;28;90122;-71
2022/06/16 07:26:22;;;;;;;74.28;58.67;;;21.70;61.60;;;;;;4931239;28;92665;-71
2022/06/16 07:28:49;;;;;;;74.80;58.13;;;21.50;62.50;;;;;;4937959;28;91670;-71
2022/06/16 07:31:17;;;;;;;77.90;57.45;;;21.50;62.50;;;;;;4944067;28;90263;-72
2022/06/16 07:33:43;;;;;;;73.28;57.30;;;21.60;61.80;;;;;;4951527;28;92141;-71
2022/06/16 07:36:10;;;;;;;73.90;56.33;;;21.80;61.80;;;;;;4950540;28;91842;-72
2022/06/16 07:38:36;;;;;;;76.60;58.47;;;21.90;61.60;;;;;;4958893;28;91502;-72
2022/06/16 07:43:47;;;;;;;72.93;58.00;;;21.80;62.00;;;;;;4950179;28;89346;-74
2022/06/16 07:46:13;;;;;;;71.15;58.00;;;21.90;62.80;;;;;;4938872;28;92626;-71
2022/06/16 07:48:39;;;;;;;72.70;57.38;;;21.80;62.50;;;;;;4933276;28;89859;-75
2022/06/16 07:51:05;;;;;;;74.18;57.35;;;21.90;62.80;;;;;;4945165;28;91552;-74
2022/06/16 07:53:31;;;;;;;76.78;57.60;;;22.00;60.50;;;;;;4948381;28;90200;-74
2022/06/16 07:56:06;;;;;;;76.13;57.28;;;21.90;61.60;;;;;;4947248;28;90625;-72
2022/06/16 07:58:32;;;;;;;74.22;56.55;;;21.90;61.20;;;;;;4947833;28;90056;-75
2022/06/16 08:00:59;;;;;;;74.32;56.30;;;21.90;61.40;;;;;;4922828;28;92934;-73
2022/06/16 08:03:29;;;;;;;70.95;55.47;;;21.80;62.50;;;;;;4945522;28;89975;-75
2022/06/16 08:05:56;;;;;;;71.22;55.53;;;22.00;60.70;;;;;;4950632;28;89914;-73
2022/06/16 08:08:23;;;;;;;70.57;55.67;;;22.30;60.70;;;;;;4954599;28;91161;-73
2022/06/16 08:10:51;;;;;;;74.38;56.05;;;22.30;59.80;;;;;;4933216;28;91409;-72
2022/06/16 08:13:20;;;;;;;75.03;57.13;;;22.30;59.40;;;;;;4925270;28;92036;-71
2022/06/16 08:15:46;;;;;;;73.57;55.88;;;22.20;59.50;;;;;;4943213;28;92403;-72
2022/06/16 08:18:20;;;;;;;73.40;56.22;;;22.30;59.70;;;;;;4948049;28;91559;-72
2022/06/16 08:20:50;;;;;;;70.03;54.83;;;22.20;59.10;;;;;;4931313;28;94714;-69
2022/06/16 08:23:17;;;;;;;71.68;56.47;;;22.40;60.10;;;;;;4938632;28;90007;-73
2022/06/16 08:25:47;;;;;;;70.85;55.30;;;22.50;59.10;;;;;;4940381;28;90477;-69
2022/06/16 08:28:17;;;;;;;70.80;55.72;;;22.60;59.60;;;;;;4945011;28;90226;-72
2022/06/16 08:30:46;;;;;;;73.72;55.70;;;22.50;59.70;;;;;;4945979;28;90196;-72
2022/06/16 08:33:15;;;;;;;73.95;56.22;;;22.60;59.30;;;;;;4958358;28;89185;-73
2022/06/16 08:35:46;;;;;;;73.50;55.83;;;22.70;58.10;;;;;;4955130;28;90928;-74
2022/06/16 08:38:12;;;;;;;;;;;22.60;58.10;;;;;;4939750;28;91490;-73
2022/06/16 08:40:45;;;;;;;69.18;55.00;;;22.70;58.50;;;;;;4915443;28;91416;-72
2022/06/16 08:43:28;;;;;;;70.45;54.88;;;22.60;58.40;;;;;;4930662;28;95157;-73
2022/06/16 08:46:00;;;;;;;70.20;55.17;;;22.60;58.40;;;;;;4933447;28;90210;-73
2022/06/16 08:48:38;;;;;;;70.03;54.30;;;22.70;57.40;;;;;;4931833;28;90323;-73
2022/06/16 08:51:20;;;;;;;71.30;55.05;;;22.80;57.90;;;;;;4942286;28;90793;-73
2022/06/16 08:54:04;;;;;;;70.10;54.70;;;22.90;56.80;;;;;;4956381;28;89493;-73
2022/06/16 08:56:44;;;;;;;72.55;55.40;;;22.80;56.20;;;;;;4954771;28;91397;-74
2022/06/16 08:59:43;;;;;;;70.63;54.90;;;22.90;55.60;;;;;;4959159;28;90936;-73
2022/06/16 09:02:40;;;;;;;70.65;54.58;;;22.80;54.70;;;;;;4950685;28;90355;-74
2022/06/16 09:05:30;;;;;;;68.78;54.22;;;22.90;54.80;;;;;;4941403;28;90288;-73
2022/06/16 09:08:27;;;;;;;71.45;54.47;;;22.90;55.10;;;;;;4935085;28;91599;-74
2022/06/16 09:11:10;;;;;;;71.43;54.63;;;23.20;55.10;;;;;;4948869;28;91953;-73
2022/06/16 09:14:04;;;;;;;69.78;53.70;;;23.20;55.20;;;;;;4945279;28;95447;-74
2022/06/16 09:16:55;;;;;;;68.38;53.35;;;23.50;51.80;;;;;;4926216;28;90269;-74
2022/06/16 09:19:33;;;;;;;;;;;23.60;53.70;;;;;;4934227;28;91225;-75
2022/06/16 09:22:22;;;;;;;70.10;54.20;;;23.60;53.10;;;;;;4941879;28;91547;-76
2022/06/16 09:25:02;;;;;;;72.10;53.55;;;23.60;51.80;;;;;;4945359;28;92270;-76
2022/06/16 09:27:51;;;;;;;71.20;53.27;;;23.60;52.90;;;;;;4930271;28;91160;-73
2022/06/16 09:30:24;;;;;;;70.45;53.28;;;23.70;51.80;;;;;;4938218;28;91519;-75
2022/06/16 09:32:55;;;;;;;72.47;54.22;;;23.70;52.00;;;;;;4938983;28;89602;-75
2022/06/16 09:35:32;;;;;;;71.70;53.80;;;23.50;51.90;;;;;;4949182;28;91332;-75
2022/06/16 09:38:36;;;;;;;76.20;54.08;;;23.50;52.30;;;;;;4945840;28;92267;-72
2022/06/16 09:44:14;;;;;;;72.82;54.17;;;23.70;52.00;;;;;;4929430;28;91534;-74
2022/06/16 09:46:46;;;;;;;72.28;53.92;;;23.70;52.20;;;;;;4930997;28;90347;-73
2022/06/16 09:49:22;;;;;;;70.00;53.65;;;23.70;51.40;;;;;;4944465;28;92238;-72
2022/06/16 09:51:58;;;;;;;71.28;53.42;;;23.80;53.10;;;;;;4956599;28;90889;-73
2022/06/16 09:54:37;;;;;;;73.10;53.22;;;23.90;51.80;;;;;;4947657;28;89248;-71
2022/06/16 09:57:23;;;;;;;74.18;53.58;;;24.10;51.60;;;;;;4933789;28;90421;-73
2022/06/16 09:59:56;;;;;;;70.13;53.35;;;24.20;53.10;;;;;;4924004;28;90160;-72
2022/06/16 10:02:33;;;;;;;70.22;53.63;;;24.20;51.90;;;;;;4940536;28;93023;-71
2022/06/16 10:05:00;;;;;;;69.40;53.70;;;24.20;50.50;;;;;;4937447;28;90120;-71
2022/06/16 10:07:41;;;;;;;69.43;53.92;;;24.30;51.40;;;;;;4932033;28;92616;-71
2022/06/16 10:10:11;;;;;;;;;;;24.20;51.30;;;;;;4948047;28;90882;-72
2022/06/16 10:12:49;;;;;;;71.28;53.30;;;24.30;52.00;;;;;;4949939;28;90414;-72
2022/06/16 10:15:46;;;;;;;71.55;54.08;;;24.20;49.60;;;;;;4931436;28;95922;-72
2022/06/16 10:18:17;;;;;;;69.10;53.58;;;24.30;50.30;;;;;;4932155;28;92449;-71
2022/06/16 10:20:43;;;;;;;71.57;53.78;;;24.30;50.50;;;;;;4946067;28;89346;-70
2022/06/16 10:23:30;;;;;;;68.85;53.55;;;24.20;48.90;;;;;;4931746;28;90369;-72
2022/06/16 10:26:03;;;;;;;68.75;53.63;;;24.00;48.90;;;;;;4946561;28;90241;-73
2022/06/16 10:29:03;;;;;;;69.07;53.22;;;24.00;50.50;;;;;;4931024;28;90779;-73
2022/06/16 10:31:40;;;;;;;69.15;53.40;;;24.10;50.70;;;;;;4945957;28;96095;-72
2022/06/16 10:34:18;;;;;;;70.45;53.17;;;24.10;50.00;;;;;;4944590;28;90025;-72
2022/06/16 10:37:15;;;;;;;71.03;54.03;;;24.20;50.90;;;;;;4947334;28;90418;-73
2022/06/16 10:39:47;;;;;;;70.82;53.65;;;24.30;49.00;;;;;;4940800;28;89752;-72
2022/06/16 10:42:53;;;;;;;72.68;53.42;;;24.20;49.70;;;;;;4947658;28;90761;-74
2022/06/16 10:45:26;;;;;;;68.43;53.50;;;24.40;49.80;;;;;;4920715;28;90587;-76
2022/06/16 10:47:56;;;;;;;69.60;53.45;;;24.50;49.70;;;;;;4924718;28;95538;-74
2022/06/16 10:50:30;;;;;;;69.60;53.42;;;24.40;50.40;;;;;;4931176;28;91013;-73
2022/06/16 10:53:14;;;;;;;71.50;52.88;;;24.50;49.30;;;;;;4948757;28;91881;-73
2022/06/16 10:55:45;;;;;;;70.85;53.40;;;24.60;50.30;;;;;;4943677;28;91854;-74
2022/06/16 10:58:23;;;;;;;73.32;53.70;;;24.70;50.20;;;;;;4941521;28;93900;-77
2022/06/16 11:01:06;;;;;;;72.03;54.05;;;24.80;50.60;;;;;;4933059;28;91124;-74
2022/06/16 11:03:40;;;;;;;71.72;54.55;;;24.70;48.70;;;;;;4936156;28;90037;-76
2022/06/16 11:06:07;;;;;;;71.57;53.65;;;24.50;48.00;;;;;;4941598;28;93240;-75
2022/06/16 11:08:38;;;;;;;70.22;53.15;;;24.50;50.00;;;;;;4948859;28;91743;-74
2022/06/16 11:11:05;;;;;;;71.63;53.55;;;24.50;49.30;;;;;;4943162;28;90150;-75
2022/06/16 11:13:37;;;;;;;69.72;53.42;;;24.60;49.30;;;;;;4959987;28;90589;-74
2022/06/16 11:16:15;;;;;;;71.68;53.28;;;24.60;47.10;;;;;;4957262;28;91149;-74
2022/06/16 11:18:44;;;;;;;69.60;53.40;;;24.70;48.80;;;;;;4932038;28;91242;-72
2022/06/16 11:21:22;;;;;;;71.10;54.03;;;24.70;48.80;;;;;;4948062;28;92054;-75
2022/06/16 11:23:51;;;;;;;69.78;53.45;;;24.70;49.00;;;;;;4944389;28;90869;-76
2022/06/16 11:26:16;;;;;;;70.40;53.42;;;24.60;47.10;;;;;;4926985;28;92547;-79
2022/06/16 11:28:48;;;;;;;69.78;53.45;;;24.60;49.20;;;;;;4938477;28;90121;-76
2022/06/16 11:31:19;;;;;;;71.50;53.05;;;24.70;48.30;;;;;;4940592;28;90006;-73
2022/06/16 11:36:49;;;;;;;74.50;53.83;;;24.80;49.40;;;;;;4949702;28;91910;-77
2022/06/16 11:39:49;;;;;;;69.80;53.95;;;24.90;49.80;;;;;;4960712;28;89195;-76
2022/06/16 11:42:53;;;;;;;70.30;53.63;;;24.90;48.70;;;;;;4949642;28;91378;-74
2022/06/16 11:45:41;;;;;;;71.22;54.20;;;25.00;48.00;;;;;;4931166;28;91007;-74
2022/06/16 11:48:25;;;;;;;70.43;53.58;;;25.00;48.30;;;;;;4938492;28;93186;-74
2022/06/16 11:50:53;;;;;;;70.80;54.08;;;24.80;48.20;;;;;;4950063;28;91390;-75
2022/06/16 11:53:40;;;;;;;69.93;53.58;;;24.90;48.70;;;;;;4928268;28;91077;-72
2022/06/16 11:56:39;;;;;;;70.13;53.67;;;25.00;49.00;;;;;;4946960;28;91472;-74
2022/06/16 11:59:23;;;;;;;71.93;54.40;;;25.10;48.90;;;;;;4941132;28;92273;-73
2022/06/16 12:01:57;;;;;;;70.80;53.25;;;25.00;48.30;;;;;;4941481;28;90284;-75
2022/06/16 12:04:53;;;;;;;70.97;53.97;;;25.10;49.00;;;;;;4933119;28;90092;-75
2022/06/16 12:07:35;;;;;;;69.82;53.70;;;25.10;50.20;;;;;;4923401;28;89769;-74
2022/06/16 12:10:21;;;;;;;70.65;53.90;;;25.20;49.00;;;;;;4932489;28;90761;-74
2022/06/16 12:12:57;;;;;;;68.82;53.33;;;25.00;46.40;;;;;;4942795;28;91386;-75
2022/06/16 12:15:48;;;;;;;72.10;53.78;;;25.00;47.80;;;;;;4936674;28;91529;-75
2022/06/16 12:18:16;;;;;;;;;;;25.00;46.70;;;;;;4952508;28;91271;-74
2022/06/16 12:21:00;;;;;;;71.97;54.25;;;25.20;48.10;;;;;;4934870;28;93053;-75
2022/06/16 12:23:57;;;;;;;72.22;53.67;;;25.20;48.40;;;;;;4947735;28;92177;-75
2022/06/16 12:26:32;;;;;;;75.63;54.45;;;25.30;46.90;;;;;;4950957;28;90580;-75
2022/06/16 12:29:07;;;;;;;71.95;53.75;;;25.10;45.40;;;;;;4946792;28;91145;-73
2022/06/16 12:31:53;;;;;;;68.72;53.55;;;25.10;45.20;;;;;;4943480;28;90618;-75
2022/06/16 12:34:52;;;;;;;71.28;53.35;;;25.00;45.10;;;;;;4949164;28;89967;-75
2022/06/16 12:37:25;;;;;;;70.88;53.30;;;25.20;46.80;;;;;;4947756;28;89743;-73
2022/06/16 12:40:03;;;;;;;72.70;53.63;;;25.20;45.90;;;;;;4949931;28;90969;-74
2022/06/16 12:42:35;;;;;;;70.90;53.55;;;25.30;45.50;;;;;;4940903;28;91438;-74
2022/06/16 12:45:12;;;;;;;69.90;53.50;;;25.40;45.50;;;;;;4934405;28;92867;-76
2022/06/16 12:47:59;;;;;;;72.97;53.45;;;25.50;46.00;;;;;;4947550;28;90774;-74
2022/06/16 12:50:37;;;;;;;71.20;53.60;;;25.50;46.30;;;;;;4932691;28;89483;-77
2022/06/16 12:53:15;;;;;;;69.60;53.28;;;25.50;45.80;;;;;;4950973;28;91134;-76
2022/06/16 12:55:45;;;;;;;70.80;53.95;;;25.60;47.00;;;;;;4932672;28;91539;-75
2022/06/16 12:58:24;;;;;;;69.73;53.90;;;25.50;45.60;;;;;;4958879;28;90820;-73
2022/06/16 13:00:57;;;;;;;71.93;54.03;;;25.40;44.40;;;;;;4950686;28;89263;-76
2022/06/16 13:03:31;;;;;;;69.47;53.45;;;25.40;45.30;;;;;;4955410;28;90371;-75
2022/06/16 13:05:58;;;;;;;69.78;53.47;;;25.60;46.70;;;;;;4945536;28;91359;-74
2022/06/16 13:08:26;;;;;;;69.43;53.45;;;25.60;47.30;;;;;;4944313;28;91021;-74
2022/06/16 13:11:00;;;;;;;72.05;53.95;;;25.70;47.60;;;;;;4944167;28;92503;-74
2022/06/16 13:13:31;;;;;;;72.50;54.03;;;25.70;45.90;;;;;;4947997;28;90359;-74
2022/06/16 13:16:00;;;;;;;70.20;53.92;;;25.70;46.10;;;;;;4944803;28;92217;-75
2022/06/16 13:18:31;;;;;;;70.68;53.53;;;25.70;44.80;;;;;;4958754;28;89488;-75
2022/06/16 13:21:05;;;;;;;72.45;53.72;;;25.70;46.00;;;;;;4942170;28;90269;-74
2022/06/16 13:23:40;;;;;;;69.40;53.40;;;25.70;44.70;;;;;;4952217;28;92945;-74
2022/06/16 13:26:27;;;;;;;71.70;53.60;;;25.80;45.20;;;;;;4934772;28;89698;-75
2022/06/16 13:29:17;;;;;;;72.13;53.90;;;25.80;45.70;;;;;;4940187;28;89951;-75
2022/06/16 13:31:42;;;;;;;70.03;53.78;;;25.80;45.00;;;;;;4939143;28;89622;-75